Time;durP1;ratioP1;P1;durP2;ratioP2;P2;SDS_P1;SDS_P2;PMS_P1;PMS_P2;Temp;Humidity;BMP_temperature;BMP_pressure;BME280_temperature;BME280_humidity;BME280_pressure;Samples;Min_cycle;Max_cycle;Signal;HPM_P1;HPM_P2
2022/08/06 00:02:05;;;;;;;;;;;;;;;23.91;72.63;96778.30;626774;226;67116;-65
2022/08/06 00:04:31;;;;;;;;;;;;;;;;;;626797;226;66783;-65
2022/08/06 00:06:58;;;;;;;;;;;;;;;23.90;72.55;96771.34;619084;226;64833;-65
2022/08/06 00:09:30;;;;;;;;;;;;;;;;;;626829;226;64223;-66
2022/08/06 00:11:54;;;;;;;;;;;;;;;23.91;72.54;96773.72;626628;226;64406;-66
2022/08/06 00:14:22;;;;;;;;;;;;;;;23.89;72.43;96767.84;626759;226;62703;-66
2022/08/06 00:16:49;;;;;;;;;;;;;;;23.91;72.43;96762.19;624770;226;64840;-66
2022/08/06 00:19:17;;;;;;;;;;;;;;;23.90;72.41;96771.34;622219;228;66797;-67
2022/08/06 00:21:44;;;;;;;;;;;;;;;23.90;72.36;96776.72;622177;228;62763;-67
2022/08/06 00:24:12;;;;;;;;;;;;;;;23.90;72.33;96768.66;622265;228;64560;-66
2022/08/06 00:26:40;;;;;;;;;;;;;;;23.89;72.28;96770.53;622210;228;66803;-66
2022/08/06 00:29:08;;;;;;;;;;;;;;;23.90;72.25;96768.66;622181;228;62975;-66
2022/08/06 00:31:35;;;;;;;;;;;;;;;23.90;72.30;96771.34;622221;228;67347;-66
2022/08/06 00:34:03;;;;;;;;;;;;;;;23.90;72.28;96771.34;622157;228;66983;-65
2022/08/06 00:36:32;;;;;;;;;;;;;;;23.90;72.16;96771.34;622197;228;64896;-65
2022/08/06 00:39:00;;;;;;;;;;;;;;;23.88;72.17;96771.63;622144;228;64848;-65
2022/08/06 00:41:29;;;;;;;;;;;;;;;23.89;72.08;96767.84;622190;228;65034;-65
2022/08/06 00:43:56;;;;;;;;;;;;;;;23.88;72.10;96762.78;622187;228;64914;-65
2022/08/06 00:46:24;;;;;;;;;;;;;;;23.88;72.08;96766.27;622190;228;64900;-65
2022/08/06 00:48:52;;;;;;;;;;;;;;;23.89;72.06;96767.05;622203;228;67258;-66
2022/08/06 00:51:20;;;;;;;;;;;;;;;23.87;72.08;96762.00;622172;228;64868;-66
2022/08/06 00:53:47;;;;;;;;;;;;;;;23.89;71.98;96769.73;622197;228;67003;-66
2022/08/06 00:56:15;;;;;;;;;;;;;;;23.88;71.98;96765.47;622110;228;65491;-66
2022/08/06 00:58:43;;;;;;;;;;;;;;;23.87;71.99;96766.55;622219;228;64892;-66
2022/08/06 01:01:10;;;;;;;;;;;;;;;23.87;71.92;96763.86;622151;228;67013;-66
2022/08/06 01:03:38;;;;;;;;;;;;;;;23.87;71.89;96774.59;622154;228;65066;-65
2022/08/06 01:06:06;;;;;;;;;;;;;;;23.86;71.84;96768.44;622185;228;63625;-65
2022/08/06 01:08:33;;;;;;;;;;;;;;;23.87;71.87;96777.28;622205;228;67227;-65
2022/08/06 01:11:01;;;;;;;;;;;;;;;23.87;71.89;96777.28;622208;228;66881;-65
2022/08/06 01:13:28;;;;;;;;;;;;;;;23.86;71.78;96775.70;622195;228;65252;-65
2022/08/06 01:15:57;;;;;;;;;;;;;;;23.86;71.80;96775.70;622106;226;67111;-65
2022/08/06 01:18:29;;;;;;;;;;;;;;;23.86;71.79;96776.48;621986;227;64374;-67
2022/08/06 01:21:02;;;;;;;;;;;;;;;23.86;71.72;96775.70;622253;228;64912;-68
2022/08/06 01:23:31;;;;;;;;;;;;;;;23.85;71.65;96774.11;622241;228;66561;-67
2022/08/06 01:26:12;;;;;;;;;;;;;;;23.85;71.64;96774.91;622214;228;64397;-67
2022/08/06 01:28:44;;;;;;;;;;;;;;;23.85;71.71;96774.11;622142;228;61453;-67
2022/08/06 01:31:14;;;;;;;;;;;;;;;23.85;71.69;96776.80;617758;228;67080;-68
2022/08/06 01:33:57;;;;;;;;;;;;;;;23.85;71.67;96774.11;622196;228;66938;-67
2022/08/06 01:36:29;;;;;;;;;;;;;;;23.84;71.65;96770.61;622177;228;64943;-67
2022/08/06 01:38:58;;;;;;;;;;;;;;;23.84;71.62;96778.66;621934;227;64596;-67
2022/08/06 01:41:39;;;;;;;;;;;;;;;23.85;71.58;96776.80;622256;228;67398;-67
2022/08/06 01:44:08;;;;;;;;;;;;;;;23.84;71.54;96777.87;622214;228;63067;-67
2022/08/06 01:46:37;;;;;;;;;;;;;;;23.83;71.50;96770.92;622205;228;66803;-67
2022/08/06 01:49:05;;;;;;;;;;;;;;;23.84;71.48;96767.92;622219;228;64624;-67
2022/08/06 01:51:34;;;;;;;;;;;;;;;23.83;71.46;96760.19;622159;228;65012;-67
2022/08/06 01:54:03;;;;;;;;;;;;;;;23.83;71.47;96760.19;622201;228;66805;-65
2022/08/06 01:56:32;;;;;;;;;;;;;;;23.83;71.39;96760.19;622246;228;66779;-65
2022/08/06 01:59:01;;;;;;;;;;;;;;;23.83;71.39;96760.19;622197;228;65158;-65
2022/08/06 02:01:30;;;;;;;;;;;;;;;23.83;71.38;96760.19;622194;228;67644;-67
2022/08/06 02:03:59;;;;;;;;;;;;;;;23.83;71.38;96757.50;622158;228;66791;-66
2022/08/06 02:06:28;;;;;;;;;;;;;;;23.82;71.33;96754.03;622227;228;63677;-66
2022/08/06 02:08:57;;;;;;;;;;;;;;;23.82;71.27;96754.03;622070;227;66908;-66
2022/08/06 02:11:25;;;;;;;;;;;;;;;23.82;71.34;96759.40;622197;228;66316;-66
2022/08/06 02:13:54;;;;;;;;;;;;;;;23.81;71.24;96749.73;622169;228;64835;-66
2022/08/06 02:16:22;;;;;;;;;;;;;;;23.83;71.21;96749.45;622119;226;64504;-66
2022/08/06 02:18:51;;;;;;;;;;;;;;;23.82;71.19;96751.34;622190;228;64866;-66
2022/08/06 02:21:20;;;;;;;;;;;;;;;23.82;71.23;96745.19;622263;228;62738;-66
2022/08/06 02:23:48;;;;;;;;;;;;;;;23.82;71.18;96742.51;622180;228;66968;-66
2022/08/06 02:26:17;;;;;;;;;;;;;;;23.82;71.14;96750.56;622223;228;64539;-66
2022/08/06 02:28:46;;;;;;;;;;;;;;;23.82;71.09;96745.19;622190;228;65083;-66
2022/08/06 02:31:14;;;;;;;;;;;;;;;23.81;71.16;96741.69;622184;228;66673;-66
2022/08/06 02:33:41;;;;;;;;;;;;;;;23.81;71.12;96740.90;622231;228;64482;-66
2022/08/06 02:36:16;;;;;;;;;;;;;;;23.81;71.12;96738.22;622270;228;62796;-66
2022/08/06 02:38:51;;;;;;;;;;;;;;;23.81;71.15;96740.90;622172;227;64078;-67
2022/08/06 02:41:32;;;;;;;;;;;;;;;23.81;71.08;96743.58;622097;227;64490;-68
2022/08/06 02:44:01;;;;;;;;;;;;;;;23.81;71.01;96741.69;622210;228;63728;-69
2022/08/06 02:46:36;;;;;;;;;;;;;;;23.80;71.04;96740.11;622255;228;67178;-68
2022/08/06 02:49:14;;;;;;;;;;;;;;;23.80;71.08;96742.79;622168;227;65549;-67
2022/08/06 02:51:43;;;;;;;;;;;;;;;23.80;71.18;96742.00;619723;228;65293;-67
2022/08/06 02:54:15;;;;;;;;;;;;;;;23.81;71.15;96740.90;622223;228;66710;-67
2022/08/06 02:56:44;;;;;;;;;;;;;;;23.79;71.08;96741.20;622010;227;66870;-68
2022/08/06 02:59:13;;;;;;;;;;;;;;;23.79;71.10;96740.39;622231;228;64758;-68
2022/08/06 03:01:42;;;;;;;;;;;;;;;23.80;71.04;96739.31;621969;227;66765;-68
2022/08/06 03:04:11;;;;;;;;;;;;;;;23.79;71.03;96743.89;622276;228;66785;-68
2022/08/06 03:06:40;;;;;;;;;;;;;;;23.79;70.90;96740.39;622244;228;62860;-68
2022/08/06 03:09:08;;;;;;;;;;;;;;;23.78;70.92;96742.28;622205;228;64551;-67
2022/08/06 03:11:36;;;;;;;;;;;;;;;23.79;70.98;96745.76;622244;228;66893;-67
2022/08/06 03:14:04;;;;;;;;;;;;;;;23.78;70.90;96742.28;622183;228;64922;-67
2022/08/06 03:16:33;;;;;;;;;;;;;;;23.78;70.92;96747.65;623639;226;65530;-67
2022/08/06 03:19:01;;;;;;;;;;;;;;;23.79;70.87;96748.44;626848;226;66633;-67
2022/08/06 03:21:29;;;;;;;;;;;;;;;23.79;70.88;96746.58;626827;226;62719;-67
2022/08/06 03:23:58;;;;;;;;;;;;;;;23.78;70.88;96742.28;626819;226;64327;-66
2022/08/06 03:26:26;;;;;;;;;;;;;;;23.78;70.79;96747.65;626856;226;64250;-68
2022/08/06 03:28:58;;;;;;;;;;;;;;;23.78;70.82;96747.65;626800;226;64856;-68
2022/08/06 03:31:27;;;;;;;;;;;;;;;23.78;70.89;96749.55;626867;226;66739;-69
2022/08/06 03:33:55;;;;;;;;;;;;;;;23.78;70.86;96747.65;626783;226;65082;-69
2022/08/06 03:36:23;;;;;;;;;;;;;;;23.78;70.74;96746.86;626781;226;62282;-69
2022/08/06 03:38:53;;;;;;;;;;;;;;;23.77;70.83;96751.44;626849;226;64350;-67
2022/08/06 03:41:20;;;;;;;;;;;;;;;23.77;70.79;96753.33;626651;226;66846;-67
2022/08/06 03:43:48;;;;;;;;;;;;;;;23.78;70.73;96754.91;627052;226;64820;-66
2022/08/06 03:46:17;;;;;;;;;;;;;;;23.77;70.88;96758.70;626856;226;66769;-65
2022/08/06 03:48:45;;;;;;;;;;;;;;;23.78;70.73;96760.27;626675;226;65472;-65
2022/08/06 03:51:14;;;;;;;;;;;;;;;23.77;70.74;96770.22;626841;226;65247;-67
2022/08/06 03:53:43;;;;;;;;;;;;;;;23.77;70.70;96761.37;626789;226;66540;-67
2022/08/06 03:56:12;;;;;;;;;;;;;;;23.77;70.67;96756.01;626834;226;64413;-67
2022/08/06 03:58:40;;;;;;;;;;;;;;;23.76;70.69;96765.92;626832;226;64938;-67
2022/08/06 04:01:09;;;;;;;;;;;;;;;23.76;70.65;96754.40;626811;226;64816;-67
2022/08/06 04:03:37;;;;;;;;;;;;;;;23.77;70.62;96758.70;626751;226;64680;-67
2022/08/06 04:06:09;;;;;;;;;;;;;;;23.76;70.68;96770.50;626811;226;65261;-67
2022/08/06 04:08:36;;;;;;;;;;;;;;;23.76;70.59;96770.50;626759;226;66799;-67
2022/08/06 04:11:04;;;;;;;;;;;;;;;23.76;70.64;96770.50;626834;226;66877;-67
2022/08/06 04:13:32;;;;;;;;;;;;;;;23.76;70.64;96770.50;626827;226;65009;-67
2022/08/06 04:16:00;;;;;;;;;;;;;;;23.75;70.63;96774.28;626805;226;66521;-67
2022/08/06 04:18:32;;;;;;;;;;;;;;;23.75;70.64;96774.28;626839;226;66477;-67
2022/08/06 04:21:01;;;;;;;;;;;;;;;23.75;70.61;96772.39;626619;226;62780;-67
2022/08/06 04:23:28;;;;;;;;;;;;;;;23.75;70.58;96775.08;626510;226;64466;-67
2022/08/06 04:25:57;;;;;;;;;;;;;;;23.75;70.56;96776.97;626870;226;66525;-67
2022/08/06 04:28:25;;;;;;;;;;;;;;;23.76;70.58;96775.86;626834;226;64875;-67
2022/08/06 04:30:54;;;;;;;;;;;;;;;23.75;70.61;96769.70;626813;226;66507;-67
2022/08/06 04:33:22;;;;;;;;;;;;;;;23.75;70.60;96771.59;626851;226;66320;-66
2022/08/06 04:35:50;;;;;;;;;;;;;;;23.74;70.63;96776.17;626812;226;65058;-67
2022/08/06 04:38:19;;;;;;;;;;;;;;;23.75;70.59;96779.65;626825;226;64259;-67
2022/08/06 04:40:47;;;;;;;;;;;;;;;23.75;70.68;96780.44;626820;226;64104;-67
2022/08/06 04:43:15;;;;;;;;;;;;;;;23.75;70.65;96774.28;626809;226;65202;-67
2022/08/06 04:45:43;;;;;;;;;;;;;;;23.74;70.68;96780.75;626805;226;66709;-67
2022/08/06 04:48:11;;;;;;;;;;;;;;;23.75;70.74;96780.44;626803;226;64979;-67
2022/08/06 04:50:39;;;;;;;;;;;;;;;23.74;70.76;96781.55;626829;226;62723;-67
2022/08/06 04:53:08;;;;;;;;;;;;;;;23.75;70.77;96790.38;626816;226;66743;-67
2022/08/06 04:55:36;;;;;;;;;;;;;;;23.74;70.76;96786.91;626800;226;64285;-67
2022/08/06 04:58:05;;;;;;;;;;;;;;;23.75;70.76;96795.75;626810;226;65187;-67
2022/08/06 05:00:34;;;;;;;;;;;;;;;23.74;70.80;96797.64;626785;226;64501;-67
2022/08/06 05:03:03;;;;;;;;;;;;;;;23.75;70.92;96798.43;626737;226;67609;-67
2022/08/06 05:05:32;;;;;;;;;;;;;;;23.75;71.03;96801.91;627067;226;62658;-67
2022/08/06 05:08:00;;;;;;;;;;;;;;;23.74;70.96;96803.00;626807;226;64070;-67
2022/08/06 05:10:28;;;;;;;;;;;;;;;23.74;70.93;96802.22;626820;226;66808;-67
2022/08/06 05:12:56;;;;;;;;;;;;;;;23.74;70.97;96797.64;626654;226;65214;-67
2022/08/06 05:15:31;;;;;;;;;;;;;;;23.74;71.01;96796.84;626810;226;67066;-67
2022/08/06 05:18:06;;;;;;;;;;;;;;;23.75;71.01;96798.43;622622;226;64380;-68
2022/08/06 05:20:34;;;;;;;;;;;;;;;23.74;71.02;96794.95;622200;228;65127;-68
2022/08/06 05:23:06;;;;;;;;;;;;;;;23.74;71.11;96794.95;622188;228;64402;-67
2022/08/06 05:25:35;;;;;;;;;;;;;;;23.74;71.15;96791.48;622202;228;67188;-67
2022/08/06 05:28:04;;;;;;;;;;;;;;;23.75;71.14;96793.06;622160;228;65050;-67
2022/08/06 05:30:32;;;;;;;;;;;;;;;23.74;71.12;96794.95;622189;228;65085;-67
2022/08/06 05:32:59;;;;;;;;;;;;;;;23.73;71.14;96787.98;622238;228;67229;-66
2022/08/06 05:35:27;;;;;;;;;;;;;;;23.74;71.17;96794.95;622171;228;64926;-65
2022/08/06 05:37:55;;;;;;;;;;;;;;;23.74;71.23;96794.16;622196;228;67037;-66
2022/08/06 05:40:22;;;;;;;;;;;;;;;23.74;71.26;96794.95;622144;228;66993;-67
2022/08/06 05:42:50;;;;;;;;;;;;;;;23.74;71.27;96797.64;618587;228;68235;-67
2022/08/06 05:45:19;;;;;;;;;;;;;;;23.74;71.37;96794.16;622221;228;67215;-67
2022/08/06 05:47:47;;;;;;;;;;;;;;;23.74;71.38;96799.53;622027;228;65166;-67
2022/08/06 05:50:19;;;;;;;;;;;;;;;23.74;70.25;96797.64;621892;228;65177;-66
2022/08/06 05:52:50;;;;;;;;;;;;;;;23.74;71.50;96803.00;622161;228;67023;-66
2022/08/06 05:55:22;;;;;;;;;;;;;;;23.76;71.67;96797.33;621835;227;64435;-67
2022/08/06 05:58:01;;;;;;;;;;;;;;;23.75;71.76;96795.75;620263;228;64954;-68
2022/08/06 06:00:30;;;;;;;;;;;;;;;23.75;71.86;96793.06;622000;227;67046;-65
2022/08/06 06:02:59;;;;;;;;;;;;;;;23.77;71.97;96798.94;622136;228;65123;-65
2022/08/06 06:05:27;;;;;;;;;;;;;;;23.76;72.14;96795.44;621699;228;65066;-67
2022/08/06 06:07:55;;;;;;;;;;;;;;;23.76;72.26;96800.80;622070;228;64825;-67
2022/08/06 06:10:23;;;;;;;;;;;;;;;23.77;72.37;96796.26;622213;228;64885;-67
2022/08/06 06:12:51;;;;;;;;;;;;;;;23.77;72.41;96802.41;622220;228;62833;-67
2022/08/06 06:15:20;;;;;;;;;;;;;;;23.76;72.06;96798.13;622219;228;64855;-67
2022/08/06 06:17:49;;;;;;;;;;;;;;;23.76;71.49;96794.64;622164;226;67097;-67
2022/08/06 06:20:21;;;;;;;;;;;;;;;23.77;70.73;96799.73;622179;228;64926;-66
2022/08/06 06:23:02;;;;;;;;;;;;;;;23.79;71.46;96788.69;622106;227;65489;-67
2022/08/06 06:25:33;;;;;;;;;;;;;;;23.80;71.86;96795.67;622167;227;67095;-66
2022/08/06 06:28:15;;;;;;;;;;;;;;;23.80;72.38;96798.34;622237;228;62643;-67
2022/08/06 06:30:47;;;;;;;;;;;;;;;23.80;72.30;96798.34;621961;227;65141;-67
2022/08/06 06:33:19;;;;;;;;;;;;;;;23.80;72.42;96798.34;622239;228;64836;-67
2022/08/06 06:36:01;;;;;;;;;;;;;;;23.80;72.37;96798.34;622206;228;64999;-67
2022/08/06 06:38:38;;;;;;;;;;;;;;;23.80;72.60;96793.77;622186;228;67016;-67
2022/08/06 06:41:19;;;;;;;;;;;;;;;23.81;72.67;96791.88;622195;228;67032;-67
2022/08/06 06:43:50;;;;;;;;;;;;;;;23.81;72.77;96794.56;622157;227;65248;-67
2022/08/06 06:46:29;;;;;;;;;;;;;;;23.82;72.80;96790.81;622198;228;64850;-67
2022/08/06 06:48:58;;;;;;;;;;;;;;;23.83;72.92;96789.70;622049;227;66984;-68
2022/08/06 06:51:27;;;;;;;;;;;;;;;23.82;72.99;96796.97;622090;227;64893;-68
2022/08/06 06:53:56;;;;;;;;;;;;;;;23.82;73.05;96791.60;622040;227;67069;-68
2022/08/06 06:56:25;;;;;;;;;;;;;;;23.82;73.12;96793.49;622139;228;65658;-68
2022/08/06 06:58:56;;;;;;;;;;;;;;;23.84;72.99;96793.97;622191;227;64858;-68
2022/08/06 07:01:25;;;;;;;;;;;;;;;23.83;73.16;96787.81;622192;228;64913;-68
2022/08/06 07:03:54;;;;;;;;;;;;;;;23.83;73.21;96781.66;622142;228;67046;-68
2022/08/06 07:06:22;;;;;;;;;;;;;;;23.84;73.24;96792.08;622207;228;65054;-68
2022/08/06 07:08:51;;;;;;;;;;;;;;;23.84;73.35;96783.23;622182;228;64837;-68
2022/08/06 07:11:23;;;;;;;;;;;;;;;23.85;73.34;96779.48;622297;228;66805;-68
2022/08/06 07:13:53;;;;;;;;;;;;;;;23.85;73.32;96774.91;622134;227;65053;-68
2022/08/06 07:16:22;;;;;;;;;;;;;;;23.85;73.42;96780.27;623190;226;67391;-68
2022/08/06 07:18:50;;;;;;;;;;;;;;;23.86;73.47;96781.06;626759;226;68103;-68
2022/08/06 07:21:18;;;;;;;;;;;;;;;23.86;73.48;96781.06;626810;226;64261;-68
2022/08/06 07:23:48;;;;;;;;;;;;;;;23.86;73.67;96773.02;626781;226;67273;-68
2022/08/06 07:26:17;;;;;;;;;;;;;;;23.87;73.60;96779.96;626846;226;67129;-68
2022/08/06 07:28:45;;;;;;;;;;;;;;;23.86;73.75;96781.86;626771;226;62785;-68
2022/08/06 07:31:13;;;;;;;;;;;;;;;23.86;73.72;96773.80;626791;226;65690;-68
2022/08/06 07:33:42;;;;;;;;;;;;;;;23.87;73.87;96778.09;626821;226;67241;-68
2022/08/06 07:36:10;;;;;;;;;;;;;;;23.87;73.72;96783.47;626809;226;64757;-68
2022/08/06 07:38:39;;;;;;;;;;;;;;;23.87;73.91;96777.28;626831;226;66907;-67
2022/08/06 07:41:07;;;;;;;;;;;;;;;23.87;73.92;96774.59;626762;226;64773;-67
2022/08/06 07:43:37;;;;;;;;;;;;;;;23.88;73.98;96778.89;626752;226;65065;-67
2022/08/06 07:46:06;;;;;;;;;;;;;;;23.88;73.96;96779.68;626749;226;67280;-67
2022/08/06 07:48:39;;;;;;;;;;;;;;;23.88;74.05;96785.05;626675;226;67023;-67
2022/08/06 07:51:07;;;;;;;;;;;;;;;23.90;74.23;96776.72;626781;226;64990;-67
2022/08/06 07:53:36;;;;;;;;;;;;;;;23.89;74.19;96786.63;626840;226;67253;-67
2022/08/06 07:56:08;;;;;;;;;;;;;;;23.90;74.23;96776.72;626735;226;67071;-67
2022/08/06 07:58:36;;;;;;;;;;;;;;;23.89;74.32;96775.89;626773;226;63020;-65
2022/08/06 08:01:04;;;;;;;;;;;;;;;23.91;74.29;96775.61;626821;226;67213;-65
2022/08/06 08:06:22;;;;;;;;;;;;;;;23.90;74.45;96774.03;626826;226;46283;-66
2022/08/06 08:08:54;;;;;;;;;;;;;;;23.90;74.47;96768.66;626793;226;67222;-65
2022/08/06 08:11:23;;;;;;;;;;;;;;;23.90;74.46;96771.34;626803;226;66813;-66
2022/08/06 08:13:52;;;;;;;;;;;;;;;23.91;74.50;96767.56;626749;226;65191;-66
2022/08/06 08:16:20;;;;;;;;;;;;;;;23.91;74.45;96772.92;625708;226;67118;-66
2022/08/06 08:18:48;;;;;;;;;;;;;;;23.91;74.54;96773.72;622161;228;66943;-66
2022/08/06 08:21:16;;;;;;;;;;;;;;;23.91;74.67;96773.72;622206;228;65124;-68
2022/08/06 08:23:44;;;;;;;;;;;;;;;23.91;74.63;96770.25;622209;228;67047;-68
2022/08/06 08:26:12;;;;;;;;;;;;;;;23.92;74.64;96763.77;622246;228;64143;-68
2022/08/06 08:28:39;;;;;;;;;;;;;;;23.92;74.66;96772.61;622184;228;64953;-68
2022/08/06 08:31:08;;;;;;;;;;;;;;;23.92;74.82;96764.56;622194;228;66921;-68
2022/08/06 08:33:37;;;;;;;;;;;;;;;23.93;74.57;96768.06;622176;228;64878;-67
2022/08/06 08:36:05;;;;;;;;;;;;;;;23.93;74.44;96770.75;622263;228;64916;-68
2022/08/06 08:38:36;;;;;;;;;;;;;;;23.92;74.52;96763.77;622204;228;66917;-68
2022/08/06 08:41:11;;;;;;;;;;;;;;;23.93;74.49;96760.80;622219;228;66899;-67
2022/08/06 08:43:48;;;;;;;;;;;;;;;23.93;74.55;96758.12;622151;227;65950;-68
2022/08/06 08:46:17;;;;;;;;;;;;;;;23.94;74.40;96761.59;622224;228;64518;-68
2022/08/06 08:48:45;;;;;;;;;;;;;;;23.94;74.60;96764.28;622219;228;66934;-68
2022/08/06 08:51:13;;;;;;;;;;;;;;;23.93;74.71;96766.17;622198;228;64996;-68
2022/08/06 08:53:42;;;;;;;;;;;;;;;23.95;74.81;96762.39;622208;228;66765;-68
2022/08/06 08:56:11;;;;;;;;;;;;;;;23.95;74.67;96757.02;622044;227;67106;-68
2022/08/06 08:58:40;;;;;;;;;;;;;;;23.94;74.75;96758.91;622132;228;63044;-68
2022/08/06 09:01:08;;;;;;;;;;;;;;;23.95;74.81;96762.39;622190;228;67424;-68
2022/08/06 09:03:37;;;;;;;;;;;;;;;23.95;74.84;96749.76;622204;228;66904;-68
2022/08/06 09:06:05;;;;;;;;;;;;;;;23.96;75.00;96748.69;622143;228;65254;-68
2022/08/06 09:08:33;;;;;;;;;;;;;;;23.96;75.14;96750.58;622136;228;67196;-68
2022/08/06 09:11:01;;;;;;;;;;;;;;;23.96;74.41;96742.53;622094;228;67250;-68
2022/08/06 09:13:29;;;;;;;;;;;;;;;23.96;73.69;96732.58;622174;228;65411;-68
2022/08/06 09:15:57;;;;;;;;;;;;;;;23.97;73.34;96734.16;622515;226;67256;-68
2022/08/06 09:18:26;;;;;;;;;;;;;;;23.97;73.36;96728.00;626744;226;67255;-68
2022/08/06 09:20:54;;;;;;;;;;;;;;;23.97;73.39;96720.73;626763;226;62661;-68
2022/08/06 09:23:22;;;;;;;;;;;;;;;23.98;73.20;96721.53;626753;226;67294;-68
2022/08/06 09:25:50;;;;;;;;;;;;;;;23.98;73.25;96719.67;626762;226;66859;-68
2022/08/06 09:28:23;;;;;;;;;;;;;;;23.98;73.27;96722.35;626851;226;62931;-67
2022/08/06 09:30:52;;;;;;;;;;;;;;;23.99;73.43;96725.83;626004;226;75573;-68
2022/08/06 09:33:19;;;;;;;;;;;;;;;23.99;73.34;96731.20;626545;226;64668;-68
2022/08/06 09:35:48;;;;;;;;;;;;;;;23.99;73.33;96733.88;626806;226;63810;-68
2022/08/06 09:38:16;;;;;;;;;;;;;;;23.99;73.28;96734.67;626321;226;67025;-68
2022/08/06 09:40:45;;;;;;;;;;;;;;;24.00;73.38;96730.09;626777;226;66773;-67
2022/08/06 09:43:14;;;;;;;;;;;;;;;24.00;73.43;96727.41;625880;226;62752;-67
2022/08/06 09:45:43;;;;;;;;;;;;;;;24.01;73.47;96728.98;626177;226;64741;-68
2022/08/06 09:48:10;;;;;;;;;;;;;;;24.00;73.44;96722.04;626694;226;65109;-68
2022/08/06 09:50:42;;;;;;;;;;;;;;;24.01;73.54;96720.94;626729;226;65801;-68
2022/08/06 09:53:13;;;;;;;;;;;;;;;24.01;73.48;96718.25;626783;226;67233;-68
2022/08/06 09:55:40;;;;;;;;;;;;;;;24.01;73.37;96724.44;626581;226;67875;-68
2022/08/06 09:58:08;;;;;;;;;;;;;;;24.00;73.48;96720.14;626760;226;65023;-68
2022/08/06 10:00:37;;;;;;;;;;;;;;;24.01;73.48;96728.98;626784;226;64723;-67
2022/08/06 10:03:06;;;;;;;;;;;;;;;24.00;73.52;96725.51;626755;226;67066;-67
2022/08/06 10:05:34;;;;;;;;;;;;;;;24.02;73.47;96719.86;626784;226;62725;-67
2022/08/06 10:08:12;;;;;;;;;;;;;;;24.01;73.53;96719.06;626826;226;64321;-67
2022/08/06 10:10:40;;;;;;;;;;;;;;;24.01;73.51;96711.02;626761;226;64859;-67
2022/08/06 10:13:13;;;;;;;;;;;;;;;24.02;73.53;96714.49;626719;226;65194;-67
2022/08/06 10:15:40;;;;;;;;;;;;;;;24.02;73.49;96709.91;626522;226;65080;-67
2022/08/06 10:18:08;;;;;;;;;;;;;;;24.01;73.56;96697.59;622278;226;64584;-67
2022/08/06 10:20:35;;;;;;;;;;;;;;;24.02;73.55;96698.38;622147;228;62701;-67
2022/08/06 10:23:03;;;;;;;;;;;;;;;24.02;73.67;96701.86;622233;228;67222;-67
2022/08/06 10:25:32;;;;;;;;;;;;;;;24.01;73.73;96697.59;622177;228;64858;-66
2022/08/06 10:28:01;;;;;;;;;;;;;;;24.02;73.81;96699.17;622113;228;64922;-68
2022/08/06 10:30:29;;;;;;;;;;;;;;;24.02;73.47;96693.80;622213;228;64833;-68
2022/08/06 10:32:58;;;;;;;;;;;;;;;24.02;73.54;96693.02;622187;228;66903;-68
2022/08/06 10:35:26;;;;;;;;;;;;;;;24.03;73.34;96699.97;622189;228;66112;-68
2022/08/06 10:37:56;;;;;;;;;;;;;;;24.03;73.21;96706.13;622196;228;64902;-68
2022/08/06 10:40:24;;;;;;;;;;;;;;;24.03;73.17;96706.13;622127;227;67657;-68
2022/08/06 10:42:52;;;;;;;;;;;;;;;24.04;73.21;96701.58;622154;228;64552;-68
2022/08/06 10:45:21;;;;;;;;;;;;;;;24.04;73.20;96696.20;622164;228;65033;-68
2022/08/06 10:47:48;;;;;;;;;;;;;;;24.04;73.19;96702.36;622156;228;66703;-68
2022/08/06 10:50:16;;;;;;;;;;;;;;;24.04;73.20;96697.00;622209;228;64899;-68
2022/08/06 10:52:48;;;;;;;;;;;;;;;24.04;73.10;96702.36;622170;227;45723;-67
2022/08/06 10:55:16;;;;;;;;;;;;;;;24.05;73.26;96697.78;622193;228;66836;-67
2022/08/06 10:57:45;;;;;;;;;;;;;;;24.04;73.18;96694.31;622188;228;62666;-67
2022/08/06 11:00:13;;;;;;;;;;;;;;;24.04;73.25;96694.31;622126;226;67123;-67
2022/08/06 11:02:48;;;;;;;;;;;;;;;24.06;73.13;96694.81;622199;228;67508;-67
2022/08/06 11:05:17;;;;;;;;;;;;;;;24.05;73.18;96687.84;622209;228;62665;-66
2022/08/06 11:07:46;;;;;;;;;;;;;;;24.05;73.14;96687.84;622154;228;66641;-67
2022/08/06 11:10:15;;;;;;;;;;;;;;;24.05;73.23;96693.20;622209;228;67241;-67
2022/08/06 11:12:44;;;;;;;;;;;;;;;24.06;73.22;96685.94;622180;228;64904;-67
2022/08/06 11:15:12;;;;;;;;;;;;;;;24.06;73.33;96683.26;622203;228;67351;-67
2022/08/06 11:17:46;;;;;;;;;;;;;;;24.06;73.25;96680.58;625836;226;67092;-67
2022/08/06 11:20:37;;;;;;;;;;;;;;;24.07;73.32;96690.23;626781;226;62683;-67
2022/08/06 11:23:14;;;;;;;;;;;;;;;24.05;73.33;96685.16;626815;226;65303;-67
2022/08/06 11:25:43;;;;;;;;;;;;;;;24.06;73.31;96686.77;626779;226;66903;-67
2022/08/06 11:28:11;;;;;;;;;;;;;;;24.06;73.23;96692.13;626792;226;62991;-67
2022/08/06 11:30:40;;;;;;;;;;;;;;;24.07;73.15;96684.87;626779;226;67320;-67
2022/08/06 11:33:09;;;;;;;;;;;;;;;24.06;73.13;96689.45;626833;226;67050;-67
2022/08/06 11:35:39;;;;;;;;;;;;;;;24.07;73.09;96682.97;626795;226;65087;-67
2022/08/06 11:38:08;;;;;;;;;;;;;;;24.07;73.09;96676.81;626742;226;68063;-67
2022/08/06 11:40:55;;;;;;;;;;;;;;;24.06;73.14;96678.71;626782;226;64841;-66
2022/08/06 11:43:43;;;;;;;;;;;;;;;24.06;73.15;96670.66;626806;226;62561;-68
2022/08/06 11:46:30;;;;;;;;;;;;;;;24.06;73.09;96662.60;626825;226;64804;-67
2022/08/06 11:49:06;;;;;;;;;;;;;;;24.06;73.15;96662.60;626795;226;66873;-67
2022/08/06 11:51:44;;;;;;;;;;;;;;;24.07;73.08;96656.13;626836;226;62654;-67
2022/08/06 11:54:12;;;;;;;;;;;;;;;24.07;73.10;96664.19;626809;226;67137;-68
2022/08/06 11:56:58;;;;;;;;;;;;;;;24.07;72.97;96658.81;626821;226;66959;-67
2022/08/06 11:59:26;;;;;;;;;;;;;;;24.07;72.74;96653.44;626798;226;62754;-67
2022/08/06 12:01:53;;;;;;;;;;;;;;;24.07;72.80;96656.13;626729;226;64880;-67
2022/08/06 12:04:34;;;;;;;;;;;;;;;24.07;72.80;96658.81;626804;226;64614;-67
2022/08/06 12:07:13;;;;;;;;;;;;;;;24.08;72.81;96660.39;626780;226;62960;-67
2022/08/06 12:09:41;;;;;;;;;;;;;;;24.08;72.77;96652.34;624231;226;68130;-67
2022/08/06 12:12:28;;;;;;;;;;;;;;;24.08;72.77;96655.02;626781;226;66651;-67
2022/08/06 12:14:57;;;;;;;;;;;;;;;24.09;72.72;96645.08;626789;226;65233;-67
2022/08/06 12:17:26;;;;;;;;;;;;;;;24.09;72.67;96639.70;623675;226;67299;-67
2022/08/06 12:19:55;;;;;;;;;;;;;;;24.09;72.63;96645.89;622169;228;67225;-67
2022/08/06 12:22:23;;;;;;;;;;;;;;;24.09;72.64;96640.53;622171;228;65126;-67
2022/08/06 12:24:54;;;;;;;;;;;;;;;24.09;72.71;96624.42;622217;228;67409;-67
2022/08/06 12:27:26;;;;;;;;;;;;;;;24.09;72.61;96629.78;622073;226;66902;-68
2022/08/06 12:29:56;;;;;;;;;;;;;;;24.10;72.64;96630.58;622078;227;64975;-68
2022/08/06 12:32:30;;;;;;;;;;;;;;;24.09;72.80;96629.78;622094;227;64800;-68
2022/08/06 12:35:00;;;;;;;;;;;;;;;24.10;72.96;96615.26;622179;228;66621;-68
2022/08/06 12:37:35;;;;;;;;;;;;;;;24.10;72.95;96615.26;622210;228;65212;-68
2022/08/06 12:42:50;;;;;;;;;;;;;;;24.09;72.95;96608.31;622215;228;64538;-67
2022/08/06 12:45:22;;;;;;;;;;;;;;;24.10;72.84;96607.20;622195;228;62694;-66
2022/08/06 12:47:59;;;;;;;;;;;;;;;24.10;72.81;96603.73;622168;227;67376;-67
2022/08/06 12:50:28;;;;;;;;;;;;;;;24.11;72.76;96603.41;622180;228;64492;-68
2022/08/06 12:53:06;;;;;;;;;;;;;;;24.10;72.82;96604.52;622185;228;64913;-68
2022/08/06 12:55:35;;;;;;;;;;;;;;;24.10;72.67;96599.16;622251;228;64387;-68
2022/08/06 12:58:04;;;;;;;;;;;;;;;24.12;72.74;96604.23;622154;228;66612;-68
2022/08/06 13:00:32;;;;;;;;;;;;;;;24.12;72.66;96598.86;622209;228;62686;-68
2022/08/06 13:03:00;;;;;;;;;;;;;;;24.10;72.65;96588.41;622171;228;64963;-68
2022/08/06 13:05:28;;;;;;;;;;;;;;;24.11;72.69;96595.36;622208;228;64793;-68
2022/08/06 13:07:56;;;;;;;;;;;;;;;24.11;72.58;96594.57;622211;228;62743;-68